Rechercher aéroport 
image banner adimage banner ad
image banner ad

EKSR - Stora Dimun

Situé à Stora Dimun, Faroe Islands

ICAO - EKSR, IATA -

Données fournies par Airmate  

Information générale

Coordonnées: N61°41'7" W6°45'31"
Élévation : 305 feet MSL.
Variation magnétique : -8.1° East
Voir autres Aéroports à (unassigned)

Données opérationnelles

Accessible au public
Heure actuelle UTC:
Heure actuelle locale:
Météo à : EKVG - Vagar ( 50 km )
METAR: EKVG 182220Z AUTO 00000KT 9999 NCD 00/M01 Q0994
TAF: TAF EKVG 181420Z 1815/1821 35005KT 9999 SCT020 BKN030 PROB40 TEMPO 1815/1821 4000 SHRASN BKN012TCU
Voir NOTAMs / SUP AIP / TFR affectant cet aéroport [VIEW]
Fréquences de communication: [VIEW]

Pistes:

Coordonnées de l'aéroport

Adresse: Stora Dimun Faroe Islands

Vue satellite de EKSR